sensor_id;sensor_type;location;lat;lon;timestamp;P1;durP1;ratioP1;P2;durP2;ratioP2
11344;SDS011;5727;42.600;23.028;2023-09-18T00:01:12;12.63;;;11.27;;
11344;SDS011;5727;42.600;23.028;2023-09-18T00:03:39;12.80;;;11.17;;
11344;SDS011;5727;42.600;23.028;2023-09-18T00:06:06;17.10;;;11.87;;
11344;SDS011;5727;42.600;23.028;2023-09-18T00:08:35;13.40;;;11.57;;
11344;SDS011;5727;42.600;23.028;2023-09-18T00:11:02;12.83;;;11.17;;
11344;SDS011;5727;42.600;23.028;2023-09-18T00:13:28;17.50;;;11.57;;
11344;SDS011;5727;42.600;23.028;2023-09-18T00:15:55;20.10;;;10.97;;
11344;SDS011;5727;42.600;23.028;2023-09-18T00:18:24;13.73;;;11.43;;
11344;SDS011;5727;42.600;23.028;2023-09-18T00:20:51;14.43;;;11.17;;
11344;SDS011;5727;42.600;23.028;2023-09-18T00:23:19;14.07;;;11.57;;
11344;SDS011;5727;42.600;23.028;2023-09-18T00:25:47;14.13;;;11.70;;
11344;SDS011;5727;42.600;23.028;2023-09-18T00:28:14;15.73;;;11.90;;
11344;SDS011;5727;42.600;23.028;2023-09-18T00:30:42;16.07;;;11.77;;
11344;SDS011;5727;42.600;23.028;2023-09-18T00:33:12;17.23;;;12.77;;
11344;SDS011;5727;42.600;23.028;2023-09-18T00:35:39;20.00;;;12.60;;
11344;SDS011;5727;42.600;23.028;2023-09-18T00:38:06;19.47;;;12.30;;
11344;SDS011;5727;42.600;23.028;2023-09-18T00:40:32;19.33;;;14.23;;
11344;SDS011;5727;42.600;23.028;2023-09-18T00:43:00;16.93;;;12.80;;
11344;SDS011;5727;42.600;23.028;2023-09-18T00:45:28;16.37;;;12.23;;
11344;SDS011;5727;42.600;23.028;2023-09-18T00:47:55;15.77;;;11.90;;
11344;SDS011;5727;42.600;23.028;2023-09-18T00:50:22;15.73;;;12.37;;
11344;SDS011;5727;42.600;23.028;2023-09-18T00:52:49;12.30;;;11.07;;
11344;SDS011;5727;42.600;23.028;2023-09-18T00:55:16;13.50;;;11.27;;
11344;SDS011;5727;42.600;23.028;2023-09-18T00:57:43;14.90;;;11.00;;
11344;SDS011;5727;42.600;23.028;2023-09-18T01:00:13;14.40;;;11.17;;
11344;SDS011;5727;42.600;23.028;2023-09-18T01:02:43;14.83;;;11.30;;
11344;SDS011;5727;42.600;23.028;2023-09-18T01:05:11;14.70;;;10.83;;
11344;SDS011;5727;42.600;23.028;2023-09-18T01:07:37;13.03;;;10.23;;
11344;SDS011;5727;42.600;23.028;2023-09-18T01:10:04;21.07;;;12.30;;
11344;SDS011;5727;42.600;23.028;2023-09-18T01:12:36;15.80;;;11.63;;
11344;SDS011;5727;42.600;23.028;2023-09-18T01:15:11;12.60;;;11.10;;
11344;SDS011;5727;42.600;23.028;2023-09-18T01:17:42;14.93;;;11.67;;
11344;SDS011;5727;42.600;23.028;2023-09-18T01:20:11;17.17;;;11.60;;
11344;SDS011;5727;42.600;23.028;2023-09-18T01:22:40;18.23;;;11.97;;
11344;SDS011;5727;42.600;23.028;2023-09-18T01:25:06;17.53;;;11.47;;
11344;SDS011;5727;42.600;23.028;2023-09-18T01:27:33;16.93;;;11.87;;
11344;SDS011;5727;42.600;23.028;2023-09-18T01:30:00;16.60;;;12.57;;
11344;SDS011;5727;42.600;23.028;2023-09-18T01:32:28;16.17;;;12.80;;
11344;SDS011;5727;42.600;23.028;2023-09-18T01:34:59;19.80;;;13.57;;
11344;SDS011;5727;42.600;23.028;2023-09-18T01:37:27;19.43;;;12.83;;
11344;SDS011;5727;42.600;23.028;2023-09-18T01:39:57;16.80;;;12.47;;
11344;SDS011;5727;42.600;23.028;2023-09-18T01:42:24;17.37;;;13.30;;
11344;SDS011;5727;42.600;23.028;2023-09-18T01:44:52;20.73;;;13.40;;
11344;SDS011;5727;42.600;23.028;2023-09-18T01:47:20;15.07;;;12.63;;
11344;SDS011;5727;42.600;23.028;2023-09-18T01:49:49;15.77;;;12.03;;
11344;SDS011;5727;42.600;23.028;2023-09-18T01:52:16;16.67;;;12.40;;
11344;SDS011;5727;42.600;23.028;2023-09-18T01:54:43;13.93;;;12.00;;
11344;SDS011;5727;42.600;23.028;2023-09-18T01:57:11;18.83;;;12.93;;
11344;SDS011;5727;42.600;23.028;2023-09-18T01:59:38;15.37;;;11.87;;
11344;SDS011;5727;42.600;23.028;2023-09-18T02:02:06;15.70;;;12.17;;
11344;SDS011;5727;42.600;23.028;2023-09-18T02:04:34;14.23;;;12.60;;
11344;SDS011;5727;42.600;23.028;2023-09-18T02:07:01;13.60;;;12.20;;
11344;SDS011;5727;42.600;23.028;2023-09-18T02:09:28;15.00;;;11.73;;
11344;SDS011;5727;42.600;23.028;2023-09-18T02:11:56;17.43;;;12.83;;
11344;SDS011;5727;42.600;23.028;2023-09-18T02:14:24;15.40;;;12.87;;
11344;SDS011;5727;42.600;23.028;2023-09-18T02:16:51;19.63;;;14.40;;
11344;SDS011;5727;42.600;23.028;2023-09-18T02:19:19;17.20;;;12.63;;
11344;SDS011;5727;42.600;23.028;2023-09-18T02:21:45;15.70;;;14.07;;
11344;SDS011;5727;42.600;23.028;2023-09-18T02:24:12;16.27;;;13.67;;
11344;SDS011;5727;42.600;23.028;2023-09-18T02:26:39;14.47;;;12.80;;
11344;SDS011;5727;42.600;23.028;2023-09-18T02:29:07;17.10;;;13.63;;
11344;SDS011;5727;42.600;23.028;2023-09-18T02:31:37;16.50;;;12.87;;
11344;SDS011;5727;42.600;23.028;2023-09-18T02:34:04;19.50;;;13.17;;
11344;SDS011;5727;42.600;23.028;2023-09-18T02:36:32;18.83;;;12.80;;
11344;SDS011;5727;42.600;23.028;2023-09-18T02:38:59;20.70;;;13.80;;
11344;SDS011;5727;42.600;23.028;2023-09-18T02:41:25;21.10;;;13.77;;
11344;SDS011;5727;42.600;23.028;2023-09-18T02:43:52;16.83;;;12.93;;
11344;SDS011;5727;42.600;23.028;2023-09-18T02:46:19;20.33;;;14.33;;
11344;SDS011;5727;42.600;23.028;2023-09-18T02:48:47;19.97;;;14.23;;
11344;SDS011;5727;42.600;23.028;2023-09-18T02:51:14;22.03;;;14.47;;
11344;SDS011;5727;42.600;23.028;2023-09-18T02:53:40;23.00;;;15.10;;
11344;SDS011;5727;42.600;23.028;2023-09-18T02:56:07;22.50;;;14.60;;
11344;SDS011;5727;42.600;23.028;2023-09-18T02:58:34;26.13;;;15.13;;
11344;SDS011;5727;42.600;23.028;2023-09-18T03:01:01;32.53;;;17.40;;
11344;SDS011;5727;42.600;23.028;2023-09-18T03:03:29;30.67;;;17.30;;
11344;SDS011;5727;42.600;23.028;2023-09-18T03:06:01;32.13;;;17.80;;
11344;SDS011;5727;42.600;23.028;2023-09-18T03:08:28;30.13;;;17.83;;
11344;SDS011;5727;42.600;23.028;2023-09-18T03:10:55;31.70;;;18.43;;
11344;SDS011;5727;42.600;23.028;2023-09-18T03:13:22;35.10;;;20.00;;
11344;SDS011;5727;42.600;23.028;2023-09-18T03:15:49;40.80;;;20.40;;
11344;SDS011;5727;42.600;23.028;2023-09-18T03:18:16;45.83;;;21.00;;
11344;SDS011;5727;42.600;23.028;2023-09-18T03:20:43;44.27;;;21.40;;
11344;SDS011;5727;42.600;23.028;2023-09-18T03:23:11;43.37;;;20.43;;
11344;SDS011;5727;42.600;23.028;2023-09-18T03:25:39;39.67;;;20.37;;
11344;SDS011;5727;42.600;23.028;2023-09-18T03:28:06;41.40;;;20.07;;
11344;SDS011;5727;42.600;23.028;2023-09-18T03:30:32;33.83;;;19.40;;
11344;SDS011;5727;42.600;23.028;2023-09-18T03:32:59;31.07;;;18.63;;
11344;SDS011;5727;42.600;23.028;2023-09-18T03:35:28;28.90;;;18.77;;
11344;SDS011;5727;42.600;23.028;2023-09-18T03:37:55;38.60;;;19.03;;
11344;SDS011;5727;42.600;23.028;2023-09-18T03:40:23;37.30;;;19.93;;
11344;SDS011;5727;42.600;23.028;2023-09-18T03:42:50;31.57;;;18.70;;
11344;SDS011;5727;42.600;23.028;2023-09-18T03:45:16;38.80;;;19.37;;
11344;SDS011;5727;42.600;23.028;2023-09-18T03:47:44;37.47;;;19.80;;
11344;SDS011;5727;42.600;23.028;2023-09-18T03:50:11;33.77;;;18.87;;
11344;SDS011;5727;42.600;23.028;2023-09-18T03:52:38;49.00;;;20.30;;
11344;SDS011;5727;42.600;23.028;2023-09-18T03:55:06;40.13;;;19.50;;
11344;SDS011;5727;42.600;23.028;2023-09-18T03:57:35;53.57;;;21.03;;
11344;SDS011;5727;42.600;23.028;2023-09-18T04:00:03;53.80;;;21.90;;
11344;SDS011;5727;42.600;23.028;2023-09-18T04:02:32;47.20;;;19.80;;
11344;SDS011;5727;42.600;23.028;2023-09-18T04:04:58;41.13;;;18.43;;
11344;SDS011;5727;42.600;23.028;2023-09-18T04:07:25;41.33;;;19.47;;
11344;SDS011;5727;42.600;23.028;2023-09-18T04:09:52;43.40;;;19.27;;
11344;SDS011;5727;42.600;23.028;2023-09-18T04:12:18;65.47;;;23.27;;
11344;SDS011;5727;42.600;23.028;2023-09-18T04:14:46;83.20;;;23.07;;
11344;SDS011;5727;42.600;23.028;2023-09-18T04:17:13;62.30;;;22.90;;
11344;SDS011;5727;42.600;23.028;2023-09-18T04:19:40;66.20;;;23.00;;
11344;SDS011;5727;42.600;23.028;2023-09-18T04:22:08;65.10;;;23.53;;
11344;SDS011;5727;42.600;23.028;2023-09-18T04:24:35;67.60;;;22.70;;
11344;SDS011;5727;42.600;23.028;2023-09-18T04:27:02;64.93;;;22.03;;
11344;SDS011;5727;42.600;23.028;2023-09-18T04:29:28;56.10;;;23.33;;
11344;SDS011;5727;42.600;23.028;2023-09-18T04:31:57;42.57;;;20.27;;
11344;SDS011;5727;42.600;23.028;2023-09-18T04:34:23;38.33;;;19.43;;
11344;SDS011;5727;42.600;23.028;2023-09-18T04:36:50;39.03;;;18.33;;
11344;SDS011;5727;42.600;23.028;2023-09-18T04:39:17;32.50;;;18.70;;
11344;SDS011;5727;42.600;23.028;2023-09-18T04:41:44;37.13;;;19.10;;
11344;SDS011;5727;42.600;23.028;2023-09-18T04:44:11;30.83;;;18.33;;
11344;SDS011;5727;42.600;23.028;2023-09-18T04:46:39;37.13;;;20.87;;
11344;SDS011;5727;42.600;23.028;2023-09-18T04:49:08;40.60;;;22.07;;
11344;SDS011;5727;42.600;23.028;2023-09-18T04:51:37;44.83;;;23.67;;
11344;SDS011;5727;42.600;23.028;2023-09-18T04:54:04;51.90;;;25.97;;
11344;SDS011;5727;42.600;23.028;2023-09-18T04:56:31;46.30;;;25.43;;
11344;SDS011;5727;42.600;23.028;2023-09-18T04:58:58;40.37;;;23.30;;
11344;SDS011;5727;42.600;23.028;2023-09-18T05:01:25;47.87;;;24.10;;
11344;SDS011;5727;42.600;23.028;2023-09-18T05:03:52;43.93;;;22.70;;
11344;SDS011;5727;42.600;23.028;2023-09-18T05:06:21;33.23;;;20.07;;
11344;SDS011;5727;42.600;23.028;2023-09-18T05:08:48;31.20;;;19.23;;
11344;SDS011;5727;42.600;23.028;2023-09-18T05:11:14;30.73;;;18.17;;
11344;SDS011;5727;42.600;23.028;2023-09-18T05:13:41;33.70;;;19.83;;
11344;SDS011;5727;42.600;23.028;2023-09-18T05:16:08;34.97;;;20.10;;
11344;SDS011;5727;42.600;23.028;2023-09-18T05:18:35;28.23;;;18.27;;
11344;SDS011;5727;42.600;23.028;2023-09-18T05:21:03;30.87;;;18.40;;
11344;SDS011;5727;42.600;23.028;2023-09-18T05:23:31;30.17;;;19.20;;
11344;SDS011;5727;42.600;23.028;2023-09-18T05:25:59;24.27;;;17.67;;
11344;SDS011;5727;42.600;23.028;2023-09-18T05:28:25;28.07;;;18.27;;
11344;SDS011;5727;42.600;23.028;2023-09-18T05:30:52;28.40;;;18.87;;
11344;SDS011;5727;42.600;23.028;2023-09-18T05:33:20;30.43;;;18.53;;
11344;SDS011;5727;42.600;23.028;2023-09-18T05:35:46;31.67;;;18.90;;
11344;SDS011;5727;42.600;23.028;2023-09-18T05:38:14;28.90;;;18.47;;
11344;SDS011;5727;42.600;23.028;2023-09-18T05:40:44;25.87;;;18.57;;
11344;SDS011;5727;42.600;23.028;2023-09-18T05:43:11;27.57;;;17.97;;
11344;SDS011;5727;42.600;23.028;2023-09-18T05:45:38;28.80;;;17.67;;
11344;SDS011;5727;42.600;23.028;2023-09-18T05:48:05;30.27;;;18.50;;
11344;SDS011;5727;42.600;23.028;2023-09-18T05:50:33;32.70;;;18.73;;
11344;SDS011;5727;42.600;23.028;2023-09-18T05:53:01;26.50;;;18.47;;
11344;SDS011;5727;42.600;23.028;2023-09-18T05:55:29;28.63;;;17.67;;
11344;SDS011;5727;42.600;23.028;2023-09-18T05:57:57;26.47;;;17.07;;
11344;SDS011;5727;42.600;23.028;2023-09-18T06:00:24;27.87;;;17.93;;
11344;SDS011;5727;42.600;23.028;2023-09-18T06:02:51;26.30;;;17.83;;
11344;SDS011;5727;42.600;23.028;2023-09-18T06:05:18;25.70;;;18.57;;
11344;SDS011;5727;42.600;23.028;2023-09-18T06:07:47;25.97;;;18.77;;
11344;SDS011;5727;42.600;23.028;2023-09-18T06:10:15;29.27;;;18.87;;
11344;SDS011;5727;42.600;23.028;2023-09-18T06:12:42;26.73;;;18.70;;
11344;SDS011;5727;42.600;23.028;2023-09-18T06:15:11;25.97;;;16.83;;
11344;SDS011;5727;42.600;23.028;2023-09-18T06:17:38;27.77;;;18.80;;
11344;SDS011;5727;42.600;23.028;2023-09-18T06:20:06;30.67;;;19.20;;
11344;SDS011;5727;42.600;23.028;2023-09-18T06:22:35;26.17;;;17.43;;
11344;SDS011;5727;42.600;23.028;2023-09-18T06:25:03;24.57;;;18.67;;
11344;SDS011;5727;42.600;23.028;2023-09-18T06:27:30;27.17;;;18.20;;
11344;SDS011;5727;42.600;23.028;2023-09-18T06:29:59;23.73;;;17.97;;
11344;SDS011;5727;42.600;23.028;2023-09-18T06:32:27;24.30;;;17.73;;
11344;SDS011;5727;42.600;23.028;2023-09-18T06:34:54;24.00;;;17.27;;
11344;SDS011;5727;42.600;23.028;2023-09-18T06:37:22;24.23;;;17.20;;
11344;SDS011;5727;42.600;23.028;2023-09-18T06:39:49;27.10;;;18.33;;
11344;SDS011;5727;42.600;23.028;2023-09-18T06:42:16;25.80;;;18.37;;
11344;SDS011;5727;42.600;23.028;2023-09-18T06:44:43;33.67;;;19.83;;
11344;SDS011;5727;42.600;23.028;2023-09-18T06:47:10;26.37;;;19.10;;
11344;SDS011;5727;42.600;23.028;2023-09-18T06:49:38;30.50;;;19.60;;
11344;SDS011;5727;42.600;23.028;2023-09-18T06:52:06;36.03;;;20.00;;
11344;SDS011;5727;42.600;23.028;2023-09-18T06:54:33;32.17;;;20.03;;
11344;SDS011;5727;42.600;23.028;2023-09-18T06:57:01;30.03;;;19.93;;
11344;SDS011;5727;42.600;23.028;2023-09-18T06:59:28;30.53;;;20.13;;
11344;SDS011;5727;42.600;23.028;2023-09-18T07:01:55;31.40;;;20.07;;
11344;SDS011;5727;42.600;23.028;2023-09-18T07:04:22;34.37;;;20.50;;
11344;SDS011;5727;42.600;23.028;2023-09-18T07:06:50;41.77;;;21.73;;
11344;SDS011;5727;42.600;23.028;2023-09-18T07:09:18;34.43;;;19.77;;
11344;SDS011;5727;42.600;23.028;2023-09-18T07:11:48;31.83;;;20.13;;
11344;SDS011;5727;42.600;23.028;2023-09-18T07:14:15;30.67;;;20.30;;
11344;SDS011;5727;42.600;23.028;2023-09-18T07:16:42;35.73;;;21.67;;
11344;SDS011;5727;42.600;23.028;2023-09-18T07:19:09;33.83;;;22.00;;
11344;SDS011;5727;42.600;23.028;2023-09-18T07:21:37;33.90;;;21.00;;
11344;SDS011;5727;42.600;23.028;2023-09-18T07:24:07;77.67;;;23.53;;
11344;SDS011;5727;42.600;23.028;2023-09-18T07:26:35;30.03;;;20.93;;
11344;SDS011;5727;42.600;23.028;2023-09-18T07:29:02;31.93;;;22.07;;
11344;SDS011;5727;42.600;23.028;2023-09-18T07:31:28;29.07;;;20.40;;
11344;SDS011;5727;42.600;23.028;2023-09-18T07:33:55;29.83;;;21.50;;
11344;SDS011;5727;42.600;23.028;2023-09-18T07:36:22;29.23;;;20.40;;
11344;SDS011;5727;42.600;23.028;2023-09-18T07:38:49;30.40;;;21.53;;
11344;SDS011;5727;42.600;23.028;2023-09-18T07:41:17;28.60;;;20.37;;
11344;SDS011;5727;42.600;23.028;2023-09-18T07:43:46;28.47;;;20.37;;
11344;SDS011;5727;42.600;23.028;2023-09-18T07:46:13;28.80;;;21.23;;
11344;SDS011;5727;42.600;23.028;2023-09-18T07:48:40;34.07;;;21.27;;
11344;SDS011;5727;42.600;23.028;2023-09-18T07:51:10;34.13;;;21.60;;
11344;SDS011;5727;42.600;23.028;2023-09-18T07:53:37;31.10;;;20.57;;
11344;SDS011;5727;42.600;23.028;2023-09-18T07:56:04;27.43;;;20.37;;
11344;SDS011;5727;42.600;23.028;2023-09-18T07:58:32;27.53;;;20.47;;
11344;SDS011;5727;42.600;23.028;2023-09-18T08:00:58;25.17;;;19.27;;
11344;SDS011;5727;42.600;23.028;2023-09-18T08:03:25;22.90;;;18.23;;
11344;SDS011;5727;42.600;23.028;2023-09-18T08:05:53;25.13;;;19.30;;
11344;SDS011;5727;42.600;23.028;2023-09-18T08:08:20;28.93;;;20.03;;
11344;SDS011;5727;42.600;23.028;2023-09-18T08:10:48;26.40;;;19.50;;
11344;SDS011;5727;42.600;23.028;2023-09-18T08:13:15;24.30;;;19.07;;
11344;SDS011;5727;42.600;23.028;2023-09-18T08:15:44;22.03;;;18.13;;
11344;SDS011;5727;42.600;23.028;2023-09-18T08:18:10;23.10;;;17.90;;
11344;SDS011;5727;42.600;23.028;2023-09-18T08:20:40;22.73;;;17.93;;
11344;SDS011;5727;42.600;23.028;2023-09-18T08:23:07;21.87;;;16.90;;
11344;SDS011;5727;42.600;23.028;2023-09-18T08:25:34;22.17;;;17.07;;
11344;SDS011;5727;42.600;23.028;2023-09-18T08:28:02;19.07;;;16.97;;
11344;SDS011;5727;42.600;23.028;2023-09-18T08:30:29;23.20;;;17.87;;
11344;SDS011;5727;42.600;23.028;2023-09-18T08:32:58;21.50;;;16.97;;
11344;SDS011;5727;42.600;23.028;2023-09-18T08:35:24;21.17;;;16.13;;
11344;SDS011;5727;42.600;23.028;2023-09-18T08:37:54;19.77;;;17.20;;
11344;SDS011;5727;42.600;23.028;2023-09-18T08:40:21;25.17;;;18.27;;
11344;SDS011;5727;42.600;23.028;2023-09-18T08:42:51;23.30;;;18.97;;
11344;SDS011;5727;42.600;23.028;2023-09-18T08:45:23;24.30;;;18.60;;
11344;SDS011;5727;42.600;23.028;2023-09-18T08:47:53;24.30;;;18.87;;
11344;SDS011;5727;42.600;23.028;2023-09-18T08:50:22;22.27;;;18.47;;
11344;SDS011;5727;42.600;23.028;2023-09-18T08:52:50;24.23;;;18.80;;
11344;SDS011;5727;42.600;23.028;2023-09-18T08:55:17;24.17;;;19.07;;
11344;SDS011;5727;42.600;23.028;2023-09-18T08:57:44;21.90;;;18.73;;
11344;SDS011;5727;42.600;23.028;2023-09-18T09:00:13;26.30;;;19.50;;
11344;SDS011;5727;42.600;23.028;2023-09-18T09:02:43;23.80;;;19.33;;
11344;SDS011;5727;42.600;23.028;2023-09-18T09:05:09;23.83;;;19.53;;
11344;SDS011;5727;42.600;23.028;2023-09-18T09:07:38;27.13;;;19.40;;
11344;SDS011;5727;42.600;23.028;2023-09-18T09:10:05;24.27;;;19.07;;
11344;SDS011;5727;42.600;23.028;2023-09-18T09:12:48;22.10;;;18.80;;
11344;SDS011;5727;42.600;23.028;2023-09-18T09:15:16;22.53;;;17.43;;
11344;SDS011;5727;42.600;23.028;2023-09-18T09:17:43;22.47;;;18.07;;
11344;SDS011;5727;42.600;23.028;2023-09-18T09:20:10;21.47;;;17.73;;
11344;SDS011;5727;42.600;23.028;2023-09-18T09:22:40;22.47;;;17.97;;
11344;SDS011;5727;42.600;23.028;2023-09-18T09:27:51;21.30;;;18.07;;
11344;SDS011;5727;42.600;23.028;2023-09-18T09:30:18;22.43;;;17.33;;
11344;SDS011;5727;42.600;23.028;2023-09-18T09:32:47;23.93;;;18.10;;
11344;SDS011;5727;42.600;23.028;2023-09-18T09:35:19;22.27;;;17.47;;
11344;SDS011;5727;42.600;23.028;2023-09-18T09:37:53;19.20;;;16.70;;
11344;SDS011;5727;42.600;23.028;2023-09-18T09:40:24;21.50;;;16.90;;
11344;SDS011;5727;42.600;23.028;2023-09-18T09:42:52;19.87;;;16.77;;
11344;SDS011;5727;42.600;23.028;2023-09-18T09:45:25;24.93;;;18.00;;
11344;SDS011;5727;42.600;23.028;2023-09-18T09:47:53;22.83;;;17.93;;
11344;SDS011;5727;42.600;23.028;2023-09-18T09:50:20;21.13;;;17.23;;
11344;SDS011;5727;42.600;23.028;2023-09-18T09:52:47;22.73;;;18.30;;
11344;SDS011;5727;42.600;23.028;2023-09-18T09:55:21;23.27;;;17.97;;
11344;SDS011;5727;42.600;23.028;2023-09-18T09:57:50;20.70;;;16.43;;
11344;SDS011;5727;42.600;23.028;2023-09-18T10:00:18;22.27;;;15.20;;
11344;SDS011;5727;42.600;23.028;2023-09-18T10:02:53;20.33;;;15.83;;
11344;SDS011;5727;42.600;23.028;2023-09-18T10:05:24;20.00;;;16.90;;
11344;SDS011;5727;42.600;23.028;2023-09-18T10:07:56;21.90;;;16.97;;
11344;SDS011;5727;42.600;23.028;2023-09-18T10:10:27;17.13;;;14.80;;
11344;SDS011;5727;42.600;23.028;2023-09-18T10:12:56;17.87;;;15.27;;
11344;SDS011;5727;42.600;23.028;2023-09-18T10:15:27;19.13;;;14.70;;
11344;SDS011;5727;42.600;23.028;2023-09-18T10:17:56;17.97;;;15.10;;
11344;SDS011;5727;42.600;23.028;2023-09-18T10:20:25;16.77;;;14.87;;
11344;SDS011;5727;42.600;23.028;2023-09-18T10:22:56;18.73;;;13.33;;
11344;SDS011;5727;42.600;23.028;2023-09-18T10:25:29;16.63;;;13.53;;
11344;SDS011;5727;42.600;23.028;2023-09-18T10:27:57;15.27;;;13.63;;
11344;SDS011;5727;42.600;23.028;2023-09-18T10:30:27;15.33;;;13.37;;
11344;SDS011;5727;42.600;23.028;2023-09-18T10:32:55;14.30;;;12.77;;
11344;SDS011;5727;42.600;23.028;2023-09-18T10:35:23;17.03;;;12.83;;
11344;SDS011;5727;42.600;23.028;2023-09-18T10:37:49;13.53;;;11.37;;
11344;SDS011;5727;42.600;23.028;2023-09-18T10:40:20;14.03;;;11.10;;
11344;SDS011;5727;42.600;23.028;2023-09-18T10:42:49;14.67;;;10.90;;
11344;SDS011;5727;42.600;23.028;2023-09-18T10:45:18;16.50;;;10.77;;
11344;SDS011;5727;42.600;23.028;2023-09-18T10:47:45;12.33;;;10.73;;
11344;SDS011;5727;42.600;23.028;2023-09-18T10:50:22;14.03;;;10.63;;
11344;SDS011;5727;42.600;23.028;2023-09-18T10:52:50;12.57;;;11.13;;
11344;SDS011;5727;42.600;23.028;2023-09-18T10:55:17;12.77;;;9.80;;
11344;SDS011;5727;42.600;23.028;2023-09-18T10:57:55;11.60;;;9.40;;
11344;SDS011;5727;42.600;23.028;2023-09-18T11:00:24;13.27;;;10.47;;
11344;SDS011;5727;42.600;23.028;2023-09-18T11:02:53;14.40;;;11.27;;
11344;SDS011;5727;42.600;23.028;2023-09-18T11:05:31;15.00;;;11.77;;
11344;SDS011;5727;42.600;23.028;2023-09-18T11:10:54;14.57;;;11.17;;
11344;SDS011;5727;42.600;23.028;2023-09-18T11:13:31;12.90;;;11.00;;
11344;SDS011;5727;42.600;23.028;2023-09-18T11:16:02;15.57;;;11.17;;
11344;SDS011;5727;42.600;23.028;2023-09-18T11:18:39;12.90;;;9.70;;
11344;SDS011;5727;42.600;23.028;2023-09-18T11:21:06;11.70;;;8.87;;
11344;SDS011;5727;42.600;23.028;2023-09-18T11:23:35;11.13;;;8.73;;
11344;SDS011;5727;42.600;23.028;2023-09-18T11:26:07;9.97;;;7.90;;
11344;SDS011;5727;42.600;23.028;2023-09-18T11:28:35;10.03;;;7.33;;
11344;SDS011;5727;42.600;23.028;2023-09-18T11:31:03;9.13;;;7.90;;
11344;SDS011;5727;42.600;23.028;2023-09-18T11:33:31;8.67;;;6.93;;
11344;SDS011;5727;42.600;23.028;2023-09-18T11:36:03;12.87;;;7.63;;
11344;SDS011;5727;42.600;23.028;2023-09-18T11:41:22;9.97;;;6.43;;
11344;SDS011;5727;42.600;23.028;2023-09-18T11:43:52;9.63;;;6.97;;
11344;SDS011;5727;42.600;23.028;2023-09-18T11:46:58;11.20;;;6.50;;
11344;SDS011;5727;42.600;23.028;2023-09-18T11:49:25;9.27;;;7.33;;
11344;SDS011;5727;42.600;23.028;2023-09-18T11:51:53;10.17;;;7.27;;
11344;SDS011;5727;42.600;23.028;2023-09-18T11:54:21;6.97;;;4.93;;
11344;SDS011;5727;42.600;23.028;2023-09-18T11:56:48;7.87;;;5.40;;
11344;SDS011;5727;42.600;23.028;2023-09-18T11:59:16;8.67;;;6.97;;
11344;SDS011;5727;42.600;23.028;2023-09-18T12:01:51;10.30;;;6.97;;
11344;SDS011;5727;42.600;23.028;2023-09-18T12:04:26;12.25;;;5.90;;
11344;SDS011;5727;42.600;23.028;2023-09-18T12:06:54;7.25;;;4.72;;
11344;SDS011;5727;42.600;23.028;2023-09-18T12:09:21;8.02;;;4.47;;
11344;SDS011;5727;42.600;23.028;2023-09-18T12:11:50;5.45;;;4.13;;
11344;SDS011;5727;42.600;23.028;2023-09-18T12:14:20;5.05;;;4.05;;
11344;SDS011;5727;42.600;23.028;2023-09-18T12:16:47;5.30;;;3.45;;
11344;SDS011;5727;42.600;23.028;2023-09-18T12:19:16;5.20;;;3.45;;
11344;SDS011;5727;42.600;23.028;2023-09-18T12:21:45;5.18;;;4.00;;
11344;SDS011;5727;42.600;23.028;2023-09-18T12:24:14;5.78;;;3.15;;
11344;SDS011;5727;42.600;23.028;2023-09-18T12:26:41;6.07;;;3.83;;
11344;SDS011;5727;42.600;23.028;2023-09-18T12:29:08;3.75;;;2.80;;
11344;SDS011;5727;42.600;23.028;2023-09-18T12:31:38;5.45;;;3.50;;
11344;SDS011;5727;42.600;23.028;2023-09-18T12:34:05;4.22;;;3.42;;
11344;SDS011;5727;42.600;23.028;2023-09-18T12:36:41;4.38;;;2.83;;
11344;SDS011;5727;42.600;23.028;2023-09-18T12:39:08;4.93;;;3.45;;
11344;SDS011;5727;42.600;23.028;2023-09-18T12:41:35;3.97;;;3.33;;
11344;SDS011;5727;42.600;23.028;2023-09-18T12:44:05;5.50;;;3.55;;
11344;SDS011;5727;42.600;23.028;2023-09-18T12:46:32;4.60;;;3.33;;
11344;SDS011;5727;42.600;23.028;2023-09-18T12:49:15;4.90;;;3.15;;
11344;SDS011;5727;42.600;23.028;2023-09-18T12:51:43;4.90;;;3.40;;
11344;SDS011;5727;42.600;23.028;2023-09-18T12:54:11;3.72;;;3.25;;
11344;SDS011;5727;42.600;23.028;2023-09-18T12:56:41;3.63;;;3.20;;
11344;SDS011;5727;42.600;23.028;2023-09-18T12:59:08;4.07;;;3.13;;
11344;SDS011;5727;42.600;23.028;2023-09-18T13:01:38;3.78;;;2.85;;
11344;SDS011;5727;42.600;23.028;2023-09-18T13:04:05;3.90;;;3.05;;
11344;SDS011;5727;42.600;23.028;2023-09-18T13:06:33;3.78;;;3.35;;
11344;SDS011;5727;42.600;23.028;2023-09-18T13:09:14;5.38;;;3.00;;
11344;SDS011;5727;42.600;23.028;2023-09-18T13:11:51;3.25;;;2.95;;
11344;SDS011;5727;42.600;23.028;2023-09-18T13:14:19;4.95;;;2.95;;
11344;SDS011;5727;42.600;23.028;2023-09-18T13:16:45;5.13;;;3.10;;
11344;SDS011;5727;42.600;23.028;2023-09-18T13:19:12;4.43;;;3.40;;
11344;SDS011;5727;42.600;23.028;2023-09-18T13:21:47;5.95;;;3.35;;
11344;SDS011;5727;42.600;23.028;2023-09-18T13:24:27;3.80;;;2.72;;
11344;SDS011;5727;42.600;23.028;2023-09-18T13:26:54;5.45;;;3.30;;
11344;SDS011;5727;42.600;23.028;2023-09-18T13:29:21;4.90;;;3.10;;
11344;SDS011;5727;42.600;23.028;2023-09-18T13:31:49;4.57;;;3.10;;
11344;SDS011;5727;42.600;23.028;2023-09-18T13:34:16;4.97;;;3.50;;
11344;SDS011;5727;42.600;23.028;2023-09-18T13:36:43;5.68;;;3.40;;
11344;SDS011;5727;42.600;23.028;2023-09-18T13:39:12;3.72;;;3.20;;
11344;SDS011;5727;42.600;23.028;2023-09-18T13:41:42;4.28;;;3.17;;
11344;SDS011;5727;42.600;23.028;2023-09-18T13:44:09;6.00;;;3.05;;
11344;SDS011;5727;42.600;23.028;2023-09-18T13:46:36;5.53;;;3.70;;
11344;SDS011;5727;42.600;23.028;2023-09-18T13:49:03;5.63;;;4.18;;
11344;SDS011;5727;42.600;23.028;2023-09-18T13:51:30;5.53;;;3.35;;
11344;SDS011;5727;42.600;23.028;2023-09-18T13:53:57;7.32;;;3.90;;
11344;SDS011;5727;42.600;23.028;2023-09-18T13:56:26;5.43;;;3.60;;
11344;SDS011;5727;42.600;23.028;2023-09-18T13:58:54;5.20;;;3.70;;
11344;SDS011;5727;42.600;23.028;2023-09-18T14:01:21;6.75;;;3.95;;
11344;SDS011;5727;42.600;23.028;2023-09-18T14:03:49;8.93;;;4.07;;
11344;SDS011;5727;42.600;23.028;2023-09-18T14:06:16;4.88;;;3.60;;
11344;SDS011;5727;42.600;23.028;2023-09-18T14:08:43;5.07;;;3.92;;
11344;SDS011;5727;42.600;23.028;2023-09-18T14:11:09;5.68;;;3.50;;
11344;SDS011;5727;42.600;23.028;2023-09-18T14:13:38;5.40;;;4.18;;
11344;SDS011;5727;42.600;23.028;2023-09-18T14:16:06;7.10;;;3.58;;
11344;SDS011;5727;42.600;23.028;2023-09-18T14:18:34;5.90;;;4.22;;
11344;SDS011;5727;42.600;23.028;2023-09-18T14:21:01;5.05;;;4.13;;
11344;SDS011;5727;42.600;23.028;2023-09-18T14:23:28;6.68;;;3.90;;
11344;SDS011;5727;42.600;23.028;2023-09-18T14:25:54;4.38;;;3.97;;
11344;SDS011;5727;42.600;23.028;2023-09-18T14:28:21;5.70;;;4.07;;
11344;SDS011;5727;42.600;23.028;2023-09-18T14:30:50;5.68;;;3.92;;
11344;SDS011;5727;42.600;23.028;2023-09-18T14:33:17;5.57;;;3.47;;
11344;SDS011;5727;42.600;23.028;2023-09-18T14:35:43;3.83;;;3.35;;
11344;SDS011;5727;42.600;23.028;2023-09-18T14:38:10;5.90;;;3.30;;
11344;SDS011;5727;42.600;23.028;2023-09-18T14:40:40;3.55;;;3.00;;
11344;SDS011;5727;42.600;23.028;2023-09-18T14:43:07;5.68;;;4.07;;